createdAt,value
2019-02-17T00:00:11.626Z,17.20
2019-02-17T00:02:40.082Z,17.97
2019-02-17T00:05:08.803Z,17.20
2019-02-17T00:07:37.186Z,17.57
2019-02-17T00:10:06.301Z,17.80
2019-02-17T00:12:34.758Z,16.83
2019-02-17T00:15:03.349Z,16.80
2019-02-17T00:17:31.922Z,16.80
2019-02-17T00:20:00.327Z,17.40
2019-02-17T00:22:28.765Z,16.80
2019-02-17T00:24:57.476Z,17.40
2019-02-17T00:27:25.879Z,17.20
2019-02-17T00:29:54.306Z,15.83
2019-02-17T00:32:22.803Z,16.47
2019-02-17T00:34:51.293Z,15.70
2019-02-17T00:37:19.966Z,16.20
2019-02-17T00:39:48.486Z,16.57
2019-02-17T00:42:16.870Z,16.40
2019-02-17T00:44:45.326Z,15.67
2019-02-17T00:47:13.786Z,16.33
2019-02-17T00:49:42.303Z,17.10
2019-02-17T00:52:10.667Z,16.87
2019-02-17T00:54:39.226Z,15.50
2019-02-17T00:57:07.659Z,16.30
2019-02-17T00:59:36.280Z,15.27
2019-02-17T01:02:04.807Z,16.30
2019-02-17T01:04:33.199Z,15.50
2019-02-17T01:07:01.650Z,16.70
2019-02-17T01:09:30.310Z,14.90
2019-02-17T01:11:59.151Z,16.70
2019-02-17T01:14:27.878Z,16.27
2019-02-17T01:16:56.552Z,15.70
2019-02-17T01:19:25.104Z,15.40
2019-02-17T01:21:53.508Z,15.77
2019-02-17T01:24:21.874Z,16.03
2019-02-17T01:26:50.376Z,14.33
2019-02-17T01:29:20.785Z,15.03
2019-02-17T01:31:48.924Z,14.67
2019-02-17T01:34:17.368Z,14.53
2019-02-17T01:36:45.770Z,15.17
2019-02-17T01:39:14.223Z,15.10
2019-02-17T01:41:42.619Z,15.10
2019-02-17T01:44:11.066Z,14.93
2019-02-17T01:46:39.840Z,14.83
2019-02-17T01:49:08.244Z,14.90
2019-02-17T01:51:36.653Z,14.73
2019-02-17T01:54:05.445Z,13.80
2019-02-17T01:56:33.855Z,15.23
2019-02-17T01:59:02.560Z,14.50
2019-02-17T02:01:31.013Z,15.00
2019-02-17T02:03:59.473Z,14.87
2019-02-17T02:06:27.945Z,15.00
2019-02-17T02:08:56.411Z,14.07
2019-02-17T02:11:25.114Z,14.40
2019-02-17T02:13:53.593Z,14.30
2019-02-17T02:16:21.975Z,13.23
2019-02-17T02:18:50.714Z,14.40
2019-02-17T02:21:19.128Z,14.97
2019-02-17T02:23:47.580Z,14.57
2019-02-17T02:26:16.048Z,14.67
2019-02-17T02:28:44.484Z,14.20
2019-02-17T02:31:12.954Z,15.00
2019-02-17T02:33:41.338Z,15.03
2019-02-17T02:36:09.692Z,14.67
2019-02-17T02:38:38.118Z,14.17
2019-02-17T02:41:06.855Z,14.77
2019-02-17T02:43:35.300Z,14.70
2019-02-17T02:46:03.770Z,14.00
2019-02-17T02:48:32.305Z,14.23
2019-02-17T02:51:00.743Z,14.97
2019-02-17T02:53:29.190Z,14.67
2019-02-17T02:55:57.638Z,14.53
2019-02-17T02:58:26.083Z,14.50
2019-02-17T03:00:54.646Z,13.97
2019-02-17T03:03:23.018Z,14.27
2019-02-17T03:05:53.085Z,14.47
2019-02-17T03:08:21.441Z,14.40
2019-02-17T03:10:50.038Z,13.60
2019-02-17T03:13:18.566Z,14.50
2019-02-17T03:15:46.943Z,14.10
2019-02-17T03:18:15.364Z,16.07
2019-02-17T03:20:44.102Z,14.80
2019-02-17T03:23:12.453Z,14.70
2019-02-17T03:25:40.926Z,14.17
2019-02-17T03:28:09.364Z,14.03
2019-02-17T03:30:37.848Z,15.03
2019-02-17T03:33:07.616Z,14.00
2019-02-17T03:35:35.975Z,14.13
2019-02-17T03:38:04.703Z,14.57
2019-02-17T03:40:33.231Z,14.20
2019-02-17T03:43:01.935Z,13.80
2019-02-17T03:45:30.339Z,13.80
2019-02-17T03:47:58.778Z,13.90
2019-02-17T03:50:27.145Z,14.20
2019-02-17T03:52:55.573Z,14.83
2019-02-17T03:55:23.932Z,13.70
2019-02-17T03:57:52.402Z,14.93
2019-02-17T04:00:21.172Z,14.97
2019-02-17T04:02:49.831Z,13.60
2019-02-17T04:05:18.317Z,14.77
2019-02-17T04:07:46.697Z,14.43
2019-02-17T04:10:15.169Z,14.70
2019-02-17T04:12:43.619Z,13.80
2019-02-17T04:15:12.154Z,13.40
2019-02-17T04:17:40.620Z,14.90
2019-02-17T04:20:09.163Z,15.03
2019-02-17T04:22:37.671Z,13.90
2019-02-17T04:25:06.543Z,15.07
2019-02-17T04:27:35.042Z,14.60
2019-02-17T04:30:03.858Z,14.90
2019-02-17T04:32:32.244Z,15.07
2019-02-17T04:35:00.744Z,14.03
2019-02-17T04:37:29.125Z,14.70
2019-02-17T04:39:57.533Z,14.93
2019-02-17T04:42:25.971Z,14.33
2019-02-17T04:44:54.350Z,15.20
2019-02-17T04:47:22.804Z,14.47
2019-02-17T04:49:51.256Z,15.33
2019-02-17T04:52:19.732Z,14.00
2019-02-17T04:54:48.420Z,14.50
2019-02-17T04:57:16.839Z,15.00
2019-02-17T04:59:45.295Z,13.87
2019-02-17T05:02:13.773Z,14.60
2019-02-17T05:04:42.149Z,14.33
2019-02-17T05:07:10.591Z,14.57
2019-02-17T05:09:39.057Z,14.23
2019-02-17T05:12:07.511Z,15.00
2019-02-17T05:14:35.973Z,14.60
2019-02-17T05:17:04.765Z,13.30
2019-02-17T05:19:33.169Z,14.47
2019-02-17T05:22:01.540Z,14.13
2019-02-17T05:24:29.945Z,14.97
2019-02-17T05:26:58.388Z,13.80
2019-02-17T05:29:27.132Z,14.80
2019-02-17T05:31:55.524Z,15.07
2019-02-17T05:34:23.883Z,14.33
2019-02-17T05:36:52.639Z,14.63
2019-02-17T05:39:21.019Z,14.20
2019-02-17T05:41:49.664Z,14.47
2019-02-17T05:44:18.050Z,15.00
2019-02-17T05:46:46.504Z,14.00
2019-02-17T05:49:14.948Z,14.47
2019-02-17T05:51:43.338Z,14.30
2019-02-17T05:54:11.709Z,14.00
2019-02-17T05:56:40.132Z,14.83
2019-02-17T05:59:08.513Z,14.83
2019-02-17T06:01:37.184Z,14.50
2019-02-17T06:04:05.642Z,14.40
2019-02-17T06:06:34.005Z,14.67
2019-02-17T06:09:02.391Z,14.23
2019-02-17T06:11:30.797Z,15.37
2019-02-17T06:13:59.344Z,14.27
2019-02-17T06:16:27.798Z,13.40
2019-02-17T06:18:56.176Z,15.10
2019-02-17T06:21:24.633Z,14.67
2019-02-17T06:23:53.380Z,15.00
2019-02-17T06:26:21.776Z,14.40
2019-02-17T06:28:50.386Z,15.30
2019-02-17T06:31:18.803Z,15.47
2019-02-17T06:33:47.173Z,15.13
2019-02-17T06:36:15.557Z,16.13
2019-02-17T06:38:43.972Z,14.90
2019-02-17T06:41:12.327Z,14.83
2019-02-17T06:43:40.730Z,15.80
2019-02-17T06:46:10.754Z,15.47
2019-02-17T06:48:39.142Z,14.53
2019-02-17T06:51:07.529Z,14.57
2019-02-17T06:53:36.163Z,14.90
2019-02-17T06:56:06.175Z,14.70
2019-02-17T06:58:34.665Z,15.10
2019-02-17T07:01:03.365Z,15.97
2019-02-17T07:03:31.829Z,14.73
2019-02-17T07:06:13.682Z,14.23
2019-02-17T07:08:42.056Z,15.03
2019-02-17T07:11:10.756Z,14.93
2019-02-17T07:13:39.279Z,15.53
2019-02-17T07:16:07.915Z,15.83
2019-02-17T07:18:36.372Z,15.50
2019-02-17T07:21:04.815Z,15.10
2019-02-17T07:23:33.344Z,15.00
2019-02-17T07:26:01.729Z,16.80
2019-02-17T07:28:30.227Z,15.23
2019-02-17T07:30:58.886Z,15.73
2019-02-17T07:33:27.308Z,15.67
2019-02-17T07:35:56.066Z,15.57
2019-02-17T07:38:24.452Z,15.17
2019-02-17T07:40:52.960Z,15.90
2019-02-17T07:43:21.450Z,16.03
2019-02-17T07:45:49.897Z,15.30
2019-02-17T07:48:18.293Z,15.53
2019-02-17T07:50:46.836Z,16.73
2019-02-17T07:53:15.225Z,16.73
2019-02-17T07:55:43.607Z,15.40
2019-02-17T07:58:12.025Z,16.13
2019-02-17T08:00:40.519Z,17.90
2019-02-17T08:03:08.956Z,16.87
2019-02-17T08:05:37.789Z,17.00
2019-02-17T08:08:06.319Z,15.93
2019-02-17T08:10:35.306Z,15.80
2019-02-17T08:13:03.711Z,16.70
2019-02-17T08:15:32.106Z,16.70
2019-02-17T08:18:00.565Z,17.20
2019-02-17T08:20:28.958Z,17.70
2019-02-17T08:22:57.348Z,16.60
2019-02-17T08:25:25.794Z,18.10
2019-02-17T08:27:54.411Z,17.47
2019-02-17T08:30:23.124Z,17.33
2019-02-17T08:32:51.626Z,17.10
2019-02-17T08:35:20.034Z,18.10
2019-02-17T08:37:48.527Z,18.00
2019-02-17T08:40:17.020Z,16.83
2019-02-17T08:42:45.467Z,18.70
2019-02-17T08:45:13.927Z,18.83
2019-02-17T08:47:42.300Z,17.77
2019-02-17T08:50:11.773Z,16.80
2019-02-17T08:52:40.492Z,19.10
2019-02-17T08:55:10.566Z,18.50
2019-02-17T08:57:38.968Z,19.63
2019-02-17T09:00:12.642Z,18.60
2019-02-17T09:02:41.059Z,17.87
2019-02-17T09:05:09.557Z,18.87
2019-02-17T09:07:38.237Z,18.60
2019-02-17T09:10:09.632Z,18.47
2019-02-17T09:12:38.082Z,19.33
2019-02-17T09:15:09.375Z,18.83
2019-02-17T09:17:38.078Z,18.60
2019-02-17T09:20:08.203Z,18.80
2019-02-17T09:22:36.651Z,18.90
2019-02-17T09:25:07.632Z,18.57
2019-02-17T09:27:36.252Z,18.57
2019-02-17T09:30:07.294Z,19.63
2019-02-17T09:32:35.686Z,19.43
2019-02-17T09:35:04.607Z,18.97
2019-02-17T09:37:33.112Z,19.87
2019-02-17T09:40:01.492Z,19.13
2019-02-17T09:42:29.972Z,20.10
2019-02-17T09:44:58.422Z,19.53
2019-02-17T09:47:27.168Z,19.17
2019-02-17T09:49:55.819Z,19.17
2019-02-17T09:52:24.545Z,19.83
2019-02-17T09:54:53.047Z,18.73
2019-02-17T09:57:21.590Z,19.83
2019-02-17T09:59:50.214Z,21.10
2019-02-17T10:02:26.205Z,20.77
2019-02-17T10:04:48.789Z,20.90
2019-02-17T10:07:17.194Z,19.57
2019-02-17T10:09:45.657Z,20.30
2019-02-17T10:12:14.133Z,18.70
2019-02-17T10:14:42.507Z,21.40
2019-02-17T10:17:10.888Z,20.33
2019-02-17T10:19:39.416Z,19.07
2019-02-17T10:22:07.875Z,20.60
2019-02-17T10:24:36.329Z,19.90
2019-02-17T10:27:05.059Z,21.80
2019-02-17T10:29:33.440Z,19.10
2019-02-17T10:32:02.181Z,21.17
2019-02-17T10:34:30.737Z,19.13
2019-02-17T10:36:59.178Z,20.63
2019-02-17T10:39:27.812Z,21.37
2019-02-17T10:41:56.247Z,20.47
2019-02-17T10:44:24.678Z,20.10
2019-02-17T10:46:53.214Z,19.90
2019-02-17T10:49:21.656Z,21.10
2019-02-17T10:51:50.066Z,20.80
2019-02-17T10:54:18.495Z,20.90
2019-02-17T10:56:47.229Z,19.73
2019-02-17T10:59:15.614Z,20.00
2019-02-17T11:01:44.354Z,20.97
2019-02-17T11:04:12.806Z,20.40
2019-02-17T11:06:41.277Z,21.90
2019-02-17T11:09:20.068Z,21.33
2019-02-17T11:11:48.644Z,21.43
2019-02-17T11:14:17.161Z,20.67
2019-02-17T11:16:45.642Z,21.63
2019-02-17T11:19:14.103Z,21.37
2019-02-17T11:21:42.604Z,21.20
2019-02-17T11:24:11.134Z,21.47
2019-02-17T11:26:39.525Z,21.23
2019-02-17T11:29:08.058Z,21.07
2019-02-17T11:31:36.600Z,21.47
2019-02-17T11:34:05.476Z,20.90
2019-02-17T11:36:33.935Z,22.90
2019-02-17T11:39:02.399Z,22.07
2019-02-17T11:41:30.832Z,22.47
2019-02-17T11:43:59.682Z,21.80
2019-02-17T11:46:28.241Z,21.73
2019-02-17T11:48:56.622Z,21.50
2019-02-17T11:51:25.045Z,22.10
2019-02-17T11:53:53.498Z,22.30
2019-02-17T11:56:21.902Z,22.20
2019-02-17T11:58:50.358Z,21.93
2019-02-17T12:01:18.748Z,21.37
2019-02-17T12:03:47.199Z,21.53
2019-02-17T12:06:15.941Z,21.50
2019-02-17T12:08:48.459Z,22.67
2019-02-17T12:11:17.095Z,22.40
2019-02-17T12:13:45.603Z,21.37
2019-02-17T12:16:13.982Z,22.00
2019-02-17T12:18:42.402Z,23.70
2019-02-17T12:21:27.324Z,21.70
2019-02-17T12:24:11.107Z,23.00
2019-02-17T12:26:44.233Z,23.80
2019-02-17T12:29:29.021Z,24.30
2019-02-17T12:31:57.918Z,22.57
2019-02-17T12:34:26.339Z,22.53
2019-02-17T12:36:54.866Z,22.13
2019-02-17T12:39:23.269Z,22.93
2019-02-17T12:41:51.630Z,23.40
2019-02-17T12:44:20.043Z,21.70
2019-02-17T12:46:48.498Z,23.17
2019-02-17T12:49:16.907Z,22.40
2019-02-17T12:51:45.631Z,21.90
2019-02-17T12:54:14.101Z,22.63
2019-02-17T12:56:42.534Z,22.27
2019-02-17T12:59:10.918Z,22.17
2019-02-17T13:01:39.308Z,21.10
2019-02-17T13:04:07.763Z,24.57
2019-02-17T13:06:36.241Z,23.57
2019-02-17T13:09:06.303Z,24.67
2019-02-17T13:11:34.823Z,23.40
2019-02-17T13:14:03.267Z,23.00
2019-02-17T13:16:31.686Z,21.40
2019-02-17T13:19:00.140Z,23.20
2019-02-17T13:21:28.856Z,22.07
2019-02-17T13:23:57.309Z,23.30
2019-02-17T13:26:25.795Z,22.90
2019-02-17T13:28:54.684Z,21.50
2019-02-17T13:31:23.214Z,24.00
2019-02-17T13:33:51.675Z,23.27
2019-02-17T13:36:20.359Z,23.17
2019-02-17T13:38:48.761Z,22.60
2019-02-17T13:41:17.276Z,23.40
2019-02-17T13:43:46.054Z,22.97
2019-02-17T13:46:14.685Z,23.10
2019-02-17T13:48:43.151Z,24.00
2019-02-17T13:51:11.805Z,23.00
2019-02-17T13:53:40.195Z,23.80
2019-02-17T13:56:08.735Z,22.80
2019-02-17T13:58:37.119Z,22.80
2019-02-17T14:01:05.648Z,23.53
2019-02-17T14:03:34.104Z,23.07
2019-02-17T14:06:03.997Z,23.57
2019-02-17T14:08:32.429Z,23.73
2019-02-17T14:11:01.194Z,23.83
2019-02-17T14:13:29.587Z,23.90
2019-02-17T14:15:57.974Z,22.77
2019-02-17T14:18:26.658Z,23.47
2019-02-17T14:20:55.114Z,24.30
2019-02-17T14:23:23.532Z,23.80
2019-02-17T14:25:51.909Z,23.87
2019-02-17T14:28:20.297Z,24.30
2019-02-17T14:30:48.761Z,22.40
2019-02-17T14:33:17.297Z,24.60
2019-02-17T14:35:45.725Z,23.30
2019-02-17T14:38:14.356Z,23.13
2019-02-17T14:40:42.743Z,23.30
2019-02-17T14:43:11.261Z,24.50
2019-02-17T14:45:39.872Z,26.67
2019-02-17T14:48:08.580Z,24.13
2019-02-17T14:50:37.006Z,25.07
2019-02-17T14:53:05.474Z,25.90
2019-02-17T14:55:34.055Z,25.77
2019-02-17T14:58:05.311Z,25.90
2019-02-17T15:00:32.616Z,28.67
2019-02-17T15:03:01.054Z,35.57
2019-02-17T15:05:29.515Z,26.70
2019-02-17T15:07:58.001Z,25.80
2019-02-17T15:10:26.459Z,25.03
2019-02-17T15:12:54.874Z,26.13
2019-02-17T15:15:23.293Z,25.77
2019-02-17T15:17:52.000Z,27.80
2019-02-17T15:20:24.953Z,25.10
2019-02-17T15:22:53.419Z,24.83
2019-02-17T15:25:21.782Z,27.40
2019-02-17T15:27:50.188Z,26.30
2019-02-17T15:30:18.623Z,28.40
2019-02-17T15:32:47.113Z,26.77
2019-02-17T15:35:15.570Z,24.67
2019-02-17T15:37:44.039Z,30.53
2019-02-17T15:40:13.569Z,28.20
2019-02-17T15:42:43.282Z,27.73
2019-02-17T15:45:12.815Z,25.10
2019-02-17T15:47:41.285Z,28.40
2019-02-17T15:50:13.788Z,52.07
2019-02-17T15:52:42.312Z,36.73
2019-02-17T15:55:13.130Z,28.73
2019-02-17T15:57:41.659Z,29.10
2019-02-17T16:00:18.227Z,29.33
2019-02-17T16:02:46.921Z,28.10
2019-02-17T16:05:15.459Z,32.07
2019-02-17T16:07:44.191Z,31.63
2019-02-17T16:10:13.790Z,29.57
2019-02-17T16:12:42.278Z,26.83
2019-02-17T16:15:14.111Z,24.90
2019-02-17T16:17:42.653Z,26.73
2019-02-17T16:20:12.986Z,29.80
2019-02-17T16:22:41.463Z,29.17
2019-02-17T16:25:10.944Z,33.17
2019-02-17T16:27:39.472Z,32.23
2019-02-17T16:30:13.070Z,30.57
2019-02-17T16:32:41.727Z,27.50
2019-02-17T16:35:10.200Z,27.23
2019-02-17T16:37:38.629Z,26.90
2019-02-17T16:40:16.058Z,26.30
2019-02-17T16:42:44.498Z,27.17
2019-02-17T16:45:15.011Z,26.37
2019-02-17T16:47:46.499Z,24.97
2019-02-17T16:50:18.054Z,26.30
2019-02-17T16:52:46.545Z,26.40
2019-02-17T16:55:15.026Z,30.07
2019-02-17T16:57:43.861Z,27.40
2019-02-17T17:00:23.938Z,25.47
2019-02-17T17:02:56.220Z,26.30
2019-02-17T17:05:27.102Z,25.80
2019-02-17T17:07:55.578Z,25.57
2019-02-17T17:10:24.792Z,25.40
2019-02-17T17:12:53.270Z,24.50
2019-02-17T17:15:21.843Z,25.83
2019-02-17T17:17:50.319Z,24.67
2019-02-17T17:20:21.009Z,24.90
2019-02-17T17:22:50.259Z,25.80
2019-02-17T17:25:18.825Z,24.50
2019-02-17T17:27:47.452Z,23.87
2019-02-17T17:30:17.122Z,24.23
2019-02-17T17:32:45.712Z,22.73
2019-02-17T17:35:14.343Z,23.80
2019-02-17T17:37:43.138Z,23.30
2019-02-17T17:40:13.759Z,22.30
2019-02-17T17:42:42.264Z,23.27
2019-02-17T17:45:14.084Z,25.07
2019-02-17T17:47:42.601Z,24.30
2019-02-17T17:50:13.033Z,23.17
2019-02-17T17:52:41.487Z,25.17
2019-02-17T17:55:11.190Z,25.53
2019-02-17T17:57:39.708Z,22.30
2019-02-17T18:00:17.580Z,21.80
2019-02-17T18:02:46.262Z,20.93
2019-02-17T18:05:14.867Z,21.50
2019-02-17T18:07:43.405Z,22.57
2019-02-17T18:10:18.727Z,21.13
2019-02-17T18:12:47.559Z,22.37
2019-02-17T18:15:19.953Z,20.80
2019-02-17T18:17:54.355Z,19.57
2019-02-17T18:20:18.788Z,21.60
2019-02-17T18:22:47.259Z,20.33
2019-02-17T18:25:16.013Z,22.50
2019-02-17T18:27:44.427Z,21.77
2019-02-17T18:30:20.136Z,22.30
2019-02-17T18:32:48.744Z,21.13
2019-02-17T18:35:20.328Z,22.10
2019-02-17T18:37:47.417Z,25.30
2019-02-17T18:40:19.667Z,21.33
2019-02-17T18:42:48.129Z,20.10
2019-02-17T18:45:16.965Z,21.30
2019-02-17T18:47:45.670Z,20.43
2019-02-17T18:50:14.990Z,20.60
2019-02-17T18:52:43.843Z,21.97
2019-02-17T18:55:13.348Z,22.87
2019-02-17T18:57:49.565Z,22.13
2019-02-17T19:00:20.309Z,19.67
2019-02-17T19:02:48.840Z,21.13
2019-02-17T19:05:17.267Z,22.57
2019-02-17T19:07:46.020Z,21.87
2019-02-17T19:10:15.326Z,22.10
2019-02-17T19:12:43.762Z,21.70
2019-02-17T19:15:14.085Z,21.23
2019-02-17T19:17:42.728Z,29.80
2019-02-17T19:20:17.281Z,26.13
2019-02-17T19:22:45.738Z,23.70
2019-02-17T19:25:14.217Z,30.87
2019-02-17T19:27:42.731Z,22.30
2019-02-17T19:30:15.268Z,21.70
2019-02-17T19:32:43.657Z,23.17
2019-02-17T19:35:14.207Z,22.03
2019-02-17T19:37:42.725Z,21.60
2019-02-17T19:40:14.996Z,23.17
2019-02-17T19:42:43.431Z,23.13
2019-02-17T19:45:15.184Z,22.60
2019-02-17T19:47:43.724Z,21.10
2019-02-17T19:50:13.539Z,22.57
2019-02-17T19:52:42.118Z,23.53
2019-02-17T19:55:12.678Z,22.80
2019-02-17T19:57:41.403Z,22.90
2019-02-17T20:00:15.686Z,23.10
2019-02-17T20:02:45.838Z,22.33
2019-02-17T20:05:21.736Z,22.43
2019-02-17T20:07:52.750Z,23.20
2019-02-17T20:10:20.660Z,21.53
2019-02-17T20:12:50.049Z,22.20
2019-02-17T20:15:18.626Z,22.93
2019-02-17T20:17:47.026Z,23.60
2019-02-17T20:20:15.416Z,24.20
2019-02-17T20:22:43.801Z,22.43
2019-02-17T20:25:12.363Z,22.90
2019-02-17T20:27:40.715Z,22.60
2019-02-17T20:30:13.886Z,22.30
2019-02-17T20:32:42.438Z,22.87
2019-02-17T20:35:11.094Z,23.70
2019-02-17T20:37:39.825Z,23.67
2019-02-17T20:40:11.407Z,24.00
2019-02-17T20:42:39.956Z,24.97
2019-02-17T20:45:10.271Z,24.80
2019-02-17T20:47:38.641Z,24.27
2019-02-17T20:50:14.567Z,23.23
2019-02-17T20:52:43.049Z,23.90
2019-02-17T20:55:12.400Z,23.90
2019-02-17T20:57:40.922Z,23.90
2019-02-17T21:00:22.840Z,23.60
2019-02-17T21:02:51.534Z,25.00
2019-02-17T21:05:20.107Z,24.70
2019-02-17T21:07:48.887Z,24.57
2019-02-17T21:10:17.392Z,23.60
2019-02-17T21:12:45.882Z,22.23
2019-02-17T21:15:16.568Z,30.83
2019-02-17T21:17:45.064Z,29.70
2019-02-17T21:20:13.991Z,51.40
2019-02-17T21:22:42.445Z,27.27
2019-02-17T21:25:14.634Z,23.90
2019-02-17T21:27:43.036Z,24.87
2019-02-17T21:30:18.641Z,23.23
2019-02-17T21:32:47.578Z,25.57
2019-02-17T21:35:16.885Z,23.30
2019-02-17T21:37:45.356Z,23.70
2019-02-17T21:40:14.529Z,23.43
2019-02-17T21:42:43.085Z,23.10
2019-02-17T21:45:13.818Z,23.50
2019-02-17T21:47:42.172Z,23.87
2019-02-17T21:50:12.591Z,25.23
2019-02-17T21:52:42.094Z,25.50
2019-02-17T21:55:12.092Z,33.47
2019-02-17T21:57:41.023Z,26.17
2019-02-17T22:00:21.685Z,23.77
2019-02-17T22:02:50.140Z,23.50
2019-02-17T22:05:19.064Z,23.47
2019-02-17T22:07:47.774Z,25.03
2019-02-17T22:10:19.808Z,23.97
2019-02-17T22:12:50.893Z,23.70
2019-02-17T22:15:20.939Z,23.93
2019-02-17T22:17:49.505Z,23.07
2019-02-17T22:20:17.940Z,23.50
2019-02-17T22:22:46.418Z,25.03
2019-02-17T22:25:15.347Z,24.43
2019-02-17T22:27:43.793Z,23.07
2019-02-17T22:30:15.838Z,23.50
2019-02-17T22:32:44.357Z,22.80
2019-02-17T22:35:14.084Z,33.77
2019-02-17T22:37:42.569Z,27.63
2019-02-17T22:40:12.747Z,23.23
2019-02-17T22:42:41.326Z,23.73
2019-02-17T22:45:10.975Z,23.67
2019-02-17T22:47:39.476Z,23.10
2019-02-17T22:50:14.983Z,23.13
2019-02-17T22:52:44.593Z,23.30
2019-02-17T22:55:14.083Z,24.00
2019-02-17T22:57:42.607Z,22.23
2019-02-17T23:00:20.031Z,24.00
2019-02-17T23:02:48.467Z,22.40
2019-02-17T23:05:17.188Z,23.10
2019-02-17T23:07:45.569Z,24.40
2019-02-17T23:10:14.107Z,24.17
2019-02-17T23:12:42.845Z,22.27
2019-02-17T23:15:11.528Z,24.80
2019-02-17T23:17:40.230Z,24.00
2019-02-17T23:20:08.826Z,23.77
2019-02-17T23:22:37.531Z,22.67
2019-02-17T23:25:08.447Z,22.73
2019-02-17T23:27:36.893Z,25.17
2019-02-17T23:30:07.414Z,24.13
2019-02-17T23:32:36.139Z,23.03
2019-02-17T23:35:05.223Z,22.43
2019-02-17T23:37:33.668Z,23.30
2019-02-17T23:40:02.126Z,22.57
2019-02-17T23:42:30.846Z,21.43
2019-02-17T23:44:59.615Z,22.90
2019-02-17T23:47:28.223Z,23.77
2019-02-17T23:49:56.625Z,22.13
2019-02-17T23:52:25.245Z,24.17
2019-02-17T23:54:53.917Z,21.87
2019-02-17T23:57:22.371Z,24.40
2019-02-17T23:59:51.066Z,23.27
